Time;durP1;ratioP1;P1;durP2;ratioP2;P2;SDS_P1;SDS_P2;PMS_P1;PMS_P2;Temp;Humidity;BMP_temperature;BMP_pressure;BME280_temperature;BME280_humidity;BME280_pressure;Samples;Min_cycle;Max_cycle;Signal;HPM_P1;HPM_P2
2023/06/05 00:00:06;;;;;;;2.83;2.57;;;18.60;58.90;;;;;;10459383;28;20198;-79
2023/06/05 00:05:15;;;;;;;3.50;3.20;;;18.50;59.20;;;;;;10459147;28;20244;-79
2023/06/05 00:10:17;;;;;;;3.57;3.27;;;18.40;59.20;;;;;;10461919;28;20205;-79
2023/06/05 00:15:20;;;;;;;3.90;3.60;;;18.40;59.00;;;;;;10441447;28;20218;-79
2023/06/05 00:20:22;;;;;;;3.20;2.90;;;18.30;59.70;;;;;;10426274;28;20281;-80
2023/06/05 00:25:25;;;;;;;3.53;3.23;;;18.20;58.90;;;;;;10441047;28;20751;-79
2023/06/05 00:30:28;;;;;;;4.00;3.60;;;18.10;59.80;;;;;;10431273;28;20216;-79
2023/06/05 00:35:30;;;;;;;4.37;3.97;;;18.10;59.60;;;;;;10459025;28;20233;-79
2023/06/05 00:40:32;;;;;;;4.17;3.53;;;18.10;59.50;;;;;;10448231;28;20630;-79
2023/06/05 00:45:36;;;;;;;3.37;3.07;;;18.00;60.80;;;;;;10422783;28;20230;-79
2023/06/05 00:50:39;;;;;;;3.27;3.07;;;17.90;59.90;;;;;;10438982;28;20205;-79
2023/06/05 00:55:41;;;;;;;3.63;3.27;;;17.90;61.10;;;;;;10458473;28;20228;-79
2023/06/05 01:00:49;;;;;;;3.40;3.20;;;17.90;60.40;;;;;;10438866;28;20213;-79
2023/06/05 01:05:52;;;;;;;3.57;3.27;;;17.80;60.30;;;;;;10424521;28;20225;-79
2023/06/05 01:10:56;;;;;;;3.83;3.27;;;17.90;60.50;;;;;;10461675;28;20208;-79
2023/06/05 01:16:04;;;;;;;3.13;2.93;;;17.80;60.90;;;;;;10441378;28;20218;-79
2023/06/05 01:21:14;;;;;;;3.60;3.30;;;17.70;61.50;;;;;;10440967;28;20272;-79
2023/06/05 01:26:26;;;;;;;3.63;3.37;;;17.70;60.50;;;;;;10456804;28;20296;-79
2023/06/05 01:31:29;;;;;;;3.50;3.20;;;17.70;61.10;;;;;;10441826;28;20194;-79
2023/06/05 01:36:32;;;;;;;3.37;3.17;;;17.60;61.00;;;;;;10440254;28;20244;-79
2023/06/05 01:41:37;;;;;;;6.03;4.03;;;17.60;61.00;;;;;;10439253;28;20225;-79
2023/06/05 01:46:39;;;;;;;4.30;3.90;;;17.60;61.80;;;;;;10457515;28;20299;-79
2023/06/05 01:51:42;;;;;;;3.10;2.80;;;17.50;62.30;;;;;;10457481;28;20202;-79
2023/06/05 01:56:47;;;;;;;4.60;3.37;;;17.40;62.30;;;;;;10457525;28;20233;-79
2023/06/05 02:01:50;;;;;;;3.93;3.63;;;17.40;62.40;;;;;;10440948;28;20214;-79
2023/06/05 02:06:53;;;;;;;3.43;3.13;;;17.30;62.90;;;;;;10457475;28;20225;-79
2023/06/05 02:11:56;;;;;;;3.40;3.10;;;17.30;63.00;;;;;;10439520;28;20276;-79
2023/06/05 02:16:58;;;;;;;3.40;3.20;;;17.20;63.60;;;;;;10456998;28;20221;-79
2023/06/05 02:22:00;;;;;;;3.67;3.23;;;17.20;63.40;;;;;;10451083;28;20229;-79
2023/06/05 02:27:05;;;;;;;3.53;3.33;;;17.20;63.50;;;;;;10442793;28;20256;-79
2023/06/05 02:32:07;;;;;;;3.63;3.37;;;17.10;63.90;;;;;;10446923;28;20209;-79
2023/06/05 02:37:11;;;;;;;4.83;2.90;;;17.00;63.70;;;;;;10457801;28;20233;-79
2023/06/05 02:42:16;;;;;;;3.47;3.23;;;17.00;64.30;;;;;;10453130;28;20217;-82
2023/06/05 02:47:19;;;;;;;4.70;3.40;;;17.00;63.90;;;;;;10468532;28;20282;-79
2023/06/05 02:52:21;;;;;;;3.60;3.40;;;16.90;64.50;;;;;;10458213;28;20197;-79
2023/06/05 02:57:26;;;;;;;3.33;3.13;;;16.90;64.30;;;;;;10448850;28;20568;-79
2023/06/05 03:02:29;;;;;;;3.63;3.33;;;16.80;64.50;;;;;;10448368;28;20225;-80
2023/06/05 03:07:33;;;;;;;3.67;3.37;;;16.80;64.60;;;;;;10448872;28;20214;-79
2023/06/05 03:12:37;;;;;;;4.07;3.43;;;16.80;65.90;;;;;;10448048;28;20196;-79
2023/06/05 03:17:41;;;;;;;4.40;3.90;;;16.70;65.90;;;;;;10432300;28;20225;-79
2023/06/05 03:22:43;;;;;;;3.57;3.30;;;16.70;64.60;;;;;;10447351;28;20225;-79
2023/06/05 03:27:47;;;;;;;4.30;3.90;;;16.70;65.80;;;;;;10429028;28;20206;-79
2023/06/05 03:32:50;;;;;;;3.87;3.57;;;16.70;65.40;;;;;;10462478;28;20606;-80
2023/06/05 03:37:54;;;;;;;4.10;3.70;;;16.60;65.70;;;;;;10498366;23;20390;-84
2023/06/05 03:42:57;;;;;;;4.07;3.77;;;16.60;65.70;;;;;;10491674;28;20282;-83
2023/06/05 03:48:00;;;;;;;4.20;3.90;;;16.50;66.80;;;;;;10448650;28;20304;-85
2023/06/05 03:53:04;;;;;;;5.63;4.10;;;16.60;66.30;;;;;;10429638;28;20261;-85
2023/06/05 03:58:13;;;;;;;3.80;3.60;;;16.60;66.40;;;;;;10445759;28;20225;-84
2023/06/05 04:03:16;;;;;;;4.53;4.13;;;16.60;66.40;;;;;;10425886;28;20236;-84
2023/06/05 04:08:18;;;;;;;6.50;3.80;;;16.60;66.30;;;;;;10425466;28;20292;-85
2023/06/05 04:13:22;;;;;;;3.90;3.00;;;16.60;66.70;;;;;;10429127;28;20324;-84
2023/06/05 04:18:25;;;;;;;4.13;3.83;;;16.60;67.70;;;;;;10443512;28;20198;-86
2023/06/05 04:23:30;;;;;;;3.57;3.37;;;16.60;67.20;;;;;;10446214;28;20287;-84
2023/06/05 04:28:34;;;;;;;3.70;3.40;;;16.60;68.10;;;;;;10434470;28;20205;-84
2023/06/05 04:33:36;;;;;;;4.37;4.07;;;16.60;68.80;;;;;;10433298;28;20228;-84
2023/06/05 04:38:39;;;;;;;3.70;3.40;;;16.60;68.50;;;;;;10417573;28;20232;-85
2023/06/05 04:43:43;;;;;;;5.10;3.60;;;16.60;69.30;;;;;;10432257;28;20257;-85
2023/06/05 04:48:46;;;;;;;4.37;4.07;;;16.70;68.50;;;;;;10428119;28;20210;-83
2023/06/05 04:53:52;;;;;;;4.13;3.67;;;16.70;68.90;;;;;;10421761;28;20671;-82
2023/06/05 04:58:59;;;;;;;4.07;3.67;;;16.70;70.00;;;;;;10446185;28;20197;-83
2023/06/05 05:04:01;;;;;;;4.40;4.00;;;16.80;70.10;;;;;;10424774;28;20322;-83
2023/06/05 05:09:04;;;;;;;3.73;3.40;;;16.80;70.10;;;;;;10426136;28;20703;-83
2023/06/05 05:14:08;;;;;;;3.83;3.63;;;16.90;70.60;;;;;;10407370;28;20218;-83
2023/06/05 05:19:10;;;;;;;3.90;3.60;;;16.90;70.00;;;;;;10400059;28;20198;-83
2023/06/05 05:24:12;;;;;;;3.93;3.50;;;17.00;70.40;;;;;;10427047;28;20306;-84
2023/06/05 05:29:16;;;;;;;3.63;3.37;;;17.00;70.20;;;;;;10427027;28;20209;-82
2023/06/05 05:34:19;;;;;;;6.10;3.47;;;17.10;70.90;;;;;;10446044;28;20249;-82
2023/06/05 05:39:21;;;;;;;4.40;4.00;;;17.10;70.30;;;;;;10426569;28;20205;-83
2023/06/05 05:44:25;;;;;;;4.30;3.90;;;17.20;70.40;;;;;;10463141;28;20249;-82
2023/06/05 05:49:27;;;;;;;6.60;3.63;;;17.30;70.80;;;;;;10449381;28;20206;-82
2023/06/05 05:54:29;;;;;;;3.63;3.33;;;17.40;71.00;;;;;;10442176;28;20217;-82
2023/06/05 05:59:33;;;;;;;4.00;3.70;;;17.50;68.60;;;;;;10440589;28;20260;-82
2023/06/05 06:04:35;;;;;;;4.03;3.40;;;17.70;69.10;;;;;;10445978;28;20572;-83
2023/06/05 06:09:38;;;;;;;3.20;2.90;;;17.80;68.70;;;;;;10468808;28;20691;-84
2023/06/05 06:14:41;;;;;;;3.43;3.20;;;17.90;67.90;;;;;;10445381;28;20594;-84
2023/06/05 06:19:43;;;;;;;4.90;3.77;;;18.00;68.40;;;;;;10464669;28;20216;-84
2023/06/05 06:24:46;;;;;;;4.23;3.60;;;18.20;69.10;;;;;;10427702;28;20426;-84
2023/06/05 06:29:52;;;;;;;5.70;3.80;;;18.30;67.20;;;;;;10426634;28;20426;-85
2023/06/05 06:34:54;;;;;;;3.90;3.57;;;18.50;68.20;;;;;;10423501;28;20288;-85
2023/06/05 06:39:57;;;;;;;5.63;3.80;;;18.80;68.70;;;;;;10442348;28;20194;-85
2023/06/05 06:45:00;;;;;;;4.03;3.73;;;19.10;62.60;;;;;;10424196;28;20226;-85
2023/06/05 06:50:02;;;;;;;4.33;3.90;;;19.50;59.30;;;;;;10445567;28;20523;-85
2023/06/05 06:55:06;;;;;;;4.87;4.20;;;19.80;58.90;;;;;;10422480;28;20245;-85
2023/06/05 07:00:12;;;;;;;4.10;3.80;;;20.10;57.60;;;;;;10431020;28;20682;-86
2023/06/05 07:05:15;;;;;;;7.57;4.07;;;20.40;59.50;;;;;;10436678;28;20600;-86
2023/06/05 07:10:17;;;;;;;3.20;2.97;;;20.70;58.70;;;;;;10419613;28;20543;-86
2023/06/05 07:15:21;;;;;;;5.33;3.83;;;20.90;59.20;;;;;;10453144;28;20347;-86
2023/06/05 07:20:23;;;;;;;3.70;3.40;;;21.40;59.10;;;;;;10435491;28;20689;-86
2023/06/05 07:25:25;;;;;;;4.10;3.80;;;21.80;58.30;;;;;;10419135;28;20230;-86
2023/06/05 07:30:29;;;;;;;4.43;4.13;;;22.30;58.30;;;;;;10442396;28;20194;-86
2023/06/05 07:35:31;;;;;;;3.77;3.40;;;22.70;58.30;;;;;;10432957;28;20222;-86
2023/06/05 07:40:34;;;;;;;4.70;4.03;;;23.20;56.90;;;;;;10419768;28;20264;-86
2023/06/05 07:45:37;;;;;;;4.13;3.70;;;23.70;56.80;;;;;;10434809;28;20225;-86
2023/06/05 07:50:40;;;;;;;4.50;4.20;;;24.30;55.80;;;;;;10434897;28;20252;-87
2023/06/05 07:55:43;;;;;;;6.57;4.67;;;24.60;55.10;;;;;;10433880;28;20300;-87
2023/06/05 08:00:47;;;;;;;4.90;4.23;;;25.00;56.00;;;;;;10417061;28;20288;-87
2023/06/05 08:05:50;;;;;;;4.57;4.17;;;25.40;55.70;;;;;;10451147;28;20305;-87
2023/06/05 08:10:52;;;;;;;5.23;4.67;;;25.80;55.50;;;;;;10416564;28;20205;-87
2023/06/05 08:15:56;;;;;;;6.00;4.80;;;26.30;55.70;;;;;;10416839;28;20287;-88
2023/06/05 08:20:58;;;;;;;6.50;4.17;;;26.80;55.40;;;;;;10433003;28;20202;-87
2023/06/05 08:26:01;;;;;;;5.73;4.20;;;27.20;54.40;;;;;;10432214;28;20765;-87
2023/06/05 08:31:05;;;;;;;5.97;4.63;;;27.60;54.80;;;;;;10416425;28;20213;-87
2023/06/05 08:36:08;;;;;;;7.50;4.90;;;27.90;53.10;;;;;;10441136;28;20226;-87
2023/06/05 08:41:10;;;;;;;5.53;4.80;;;28.10;53.40;;;;;;10419159;28;20217;-87
2023/06/05 08:46:15;;;;;;;4.80;4.30;;;28.20;54.30;;;;;;10430951;28;20237;-87
2023/06/05 08:51:19;;;;;;;7.70;4.17;;;28.40;53.90;;;;;;10422395;28;20208;-87
2023/06/05 08:56:22;;;;;;;5.77;5.17;;;28.60;53.50;;;;;;10416422;28;20225;-87
2023/06/05 09:01:26;;;;;;;6.73;5.80;;;28.70;53.90;;;;;;10416040;28;20198;-87
2023/06/05 09:06:28;;;;;;;6.27;4.10;;;28.70;53.90;;;;;;10414754;28;20222;-87
2023/06/05 09:11:32;;;;;;;5.63;4.80;;;28.80;54.90;;;;;;10449799;28;20202;-88
2023/06/05 09:16:37;;;;;;;5.40;4.90;;;29.00;54.40;;;;;;10415857;28;20705;-87
2023/06/05 09:21:40;;;;;;;4.73;4.27;;;29.40;53.90;;;;;;10431619;28;20198;-87
2023/06/05 09:26:56;;;;;;;5.57;5.07;;;29.70;53.70;;;;;;10433952;28;20324;-87
2023/06/05 09:32:00;;;;;;;7.03;4.80;;;30.20;52.50;;;;;;10449386;28;20245;-87
2023/06/05 09:37:04;;;;;;;6.00;4.60;;;30.70;52.00;;;;;;10432985;28;20226;-87
2023/06/05 09:42:07;;;;;;;4.83;4.43;;;31.30;51.00;;;;;;10439195;28;20202;-87
2023/06/05 09:47:13;;;;;;;4.27;3.97;;;32.10;50.10;;;;;;10522067;23;20259;-83
2023/06/05 09:52:15;;;;;;;6.33;4.23;;;32.90;49.40;;;;;;10528142;28;20193;-84
2023/06/05 09:57:18;;;;;;;4.70;4.30;;;34.10;48.90;;;;;;10482172;28;20926;-83
2023/06/05 10:02:24;;;;;;;5.20;4.80;;;35.20;47.30;;;;;;10471715;28;20210;-83
2023/06/05 10:07:27;;;;;;;4.83;4.40;;;35.50;46.70;;;;;;10465992;28;20271;-82
2023/06/05 10:12:31;;;;;;;4.60;4.20;;;35.50;46.50;;;;;;10481692;28;20232;-82
2023/06/05 10:17:36;;;;;;;4.70;4.30;;;35.30;46.40;;;;;;10461770;28;20229;-84
2023/06/05 10:22:44;;;;;;;4.70;4.30;;;36.00;44.80;;;;;;10462199;28;20224;-84
2023/06/05 10:27:57;;;;;;;4.37;4.07;;;34.70;44.30;;;;;;10440843;28;20229;-83
2023/06/05 10:33:18;;;;;;;4.10;3.83;;;32.90;45.70;;;;;;10477842;28;20194;-81
2023/06/05 10:38:23;;;;;;;4.50;4.10;;;31.40;45.80;;;;;;10451666;28;20229;-82
2023/06/05 10:43:32;;;;;;;4.03;3.80;;;30.30;46.10;;;;;;10460578;28;20234;-83
2023/06/05 10:49:15;;;;;;;5.10;4.60;;;29.40;48.20;;;;;;10414934;28;20225;-84
2023/06/05 10:54:51;;;;;;;4.57;4.27;;;28.60;48.70;;;;;;10455978;28;20669;-81
2023/06/05 11:00:10;;;;;;;4.10;3.70;;;28.10;48.80;;;;;;10480777;28;20209;-82
2023/06/05 11:05:14;;;;;;;4.20;3.90;;;27.70;47.50;;;;;;10451875;28;20263;-82
2023/06/05 11:10:21;;;;;;;4.90;4.50;;;27.20;50.20;;;;;;10457983;28;20220;-83
2023/06/05 11:15:37;;;;;;;4.37;4.07;;;26.90;48.70;;;;;;10460178;28;20224;-83
2023/06/05 11:20:53;;;;;;;5.17;4.00;;;26.60;50.20;;;;;;10475586;28;20932;-82
2023/06/05 11:26:00;;;;;;;3.90;3.60;;;26.50;49.30;;;;;;10440766;28;20233;-82
2023/06/05 11:31:02;;;;;;;5.80;3.83;;;26.20;50.50;;;;;;10457907;28;20190;-80
2023/06/05 11:36:08;;;;;;;4.10;3.80;;;25.90;49.40;;;;;;10456261;28;20229;-82
2023/06/05 11:41:10;;;;;;;4.70;4.30;;;25.70;49.70;;;;;;10457903;28;20225;-82
2023/06/05 11:46:13;;;;;;;4.27;3.90;;;25.60;50.50;;;;;;10473254;28;20222;-82
2023/06/05 11:51:16;;;;;;;3.90;3.60;;;25.60;50.60;;;;;;10455234;28;20213;-82
2023/06/05 11:56:19;;;;;;;4.60;4.20;;;25.70;50.40;;;;;;10471601;28;20210;-82
2023/06/05 12:01:22;;;;;;;5.30;4.80;;;25.60;50.20;;;;;;10452297;28;20206;-82
2023/06/05 12:06:26;;;;;;;4.33;3.93;;;25.50;50.40;;;;;;10450299;28;20226;-82
2023/06/05 12:11:28;;;;;;;5.03;3.40;;;25.50;51.70;;;;;;10473643;28;20210;-82
2023/06/05 12:16:32;;;;;;;4.40;4.00;;;25.50;51.70;;;;;;10456798;28;20592;-83
2023/06/05 12:21:36;;;;;;;4.90;4.40;;;25.60;49.80;;;;;;10437278;28;20673;-83
2023/06/05 12:26:53;;;;;;;4.40;4.03;;;25.80;50.70;;;;;;10454321;28;20582;-83
2023/06/05 12:31:56;;;;;;;4.67;4.20;;;25.80;49.50;;;;;;10435153;28;20201;-83
2023/06/05 12:36:59;;;;;;;4.27;3.97;;;25.70;49.40;;;;;;10428975;28;20280;-81
2023/06/05 12:42:02;;;;;;;3.93;3.60;;;25.60;49.70;;;;;;10439563;28;20212;-83
2023/06/05 12:47:05;;;;;;;5.40;3.93;;;25.60;51.00;;;;;;10470767;28;20221;-82
2023/06/05 12:52:09;;;;;;;4.57;4.27;;;25.60;49.40;;;;;;10432598;28;20550;-81
2023/06/05 12:57:11;;;;;;;6.03;3.83;;;25.60;48.40;;;;;;10447398;28;20539;-81
2023/06/05 13:02:14;;;;;;;4.03;3.73;;;25.60;48.40;;;;;;10459454;28;20802;-82
2023/06/05 13:07:17;;;;;;;4.97;4.57;;;25.50;48.10;;;;;;10437303;28;20255;-82
2023/06/05 13:12:20;;;;;;;4.60;4.30;;;25.50;48.80;;;;;;10440798;28;20206;-81
2023/06/05 13:17:22;;;;;;;4.97;4.17;;;25.50;49.20;;;;;;10427304;28;20244;-82
2023/06/05 13:22:26;;;;;;;4.50;4.20;;;25.60;48.20;;;;;;10468564;28;20276;-83
2023/06/05 13:27:29;;;;;;;8.00;4.57;;;25.70;48.50;;;;;;10461945;28;20226;-82
2023/06/05 13:32:32;;;;;;;4.73;4.33;;;25.60;49.00;;;;;;10442653;28;20267;-82
2023/06/05 13:37:35;;;;;;;4.83;4.20;;;25.50;48.00;;;;;;10441599;28;20214;-82
2023/06/05 13:42:38;;;;;;;5.47;4.90;;;25.40;48.00;;;;;;10458521;28;20229;-82
2023/06/05 13:47:40;;;;;;;5.00;4.60;;;25.40;47.10;;;;;;10426114;28;20245;-82
2023/06/05 13:52:44;;;;;;;4.30;4.00;;;25.40;48.10;;;;;;10460401;28;20325;-82
2023/06/05 13:57:46;;;;;;;4.70;4.30;;;25.50;48.50;;;;;;10426692;28;20222;-82
2023/06/05 14:02:48;;;;;;;4.77;4.37;;;25.50;49.00;;;;;;10444061;28;20285;-83
2023/06/05 14:07:53;;;;;;;4.90;4.50;;;25.60;49.10;;;;;;10442423;28;20757;-81
2023/06/05 14:12:55;;;;;;;5.90;3.87;;;25.70;49.20;;;;;;10443276;28;20194;-82
2023/06/05 14:17:57;;;;;;;5.27;4.60;;;25.70;50.50;;;;;;10460159;28;20304;-82
2023/06/05 14:23:01;;;;;;;6.53;5.23;;;25.60;48.90;;;;;;10427651;28;20699;-82
2023/06/05 14:28:04;;;;;;;5.93;5.40;;;25.40;49.30;;;;;;10432416;28;20221;-83
2023/06/05 14:33:06;;;;;;;4.93;4.53;;;25.30;50.50;;;;;;10449977;28;20260;-82
2023/06/05 14:38:12;;;;;;;4.80;4.30;;;25.30;50.50;;;;;;10449795;28;20236;-81
2023/06/05 14:43:14;;;;;;;4.17;3.87;;;25.40;50.60;;;;;;10448103;28;20210;-83
2023/06/05 14:48:17;;;;;;;4.90;4.33;;;25.50;49.90;;;;;;10466794;28;20295;-84
2023/06/05 14:53:20;;;;;;;4.80;4.37;;;25.50;49.90;;;;;;10470297;28;20196;-81
2023/06/05 14:58:23;;;;;;;5.07;4.57;;;25.50;49.80;;;;;;10439776;28;20252;-82
2023/06/05 15:03:25;;;;;;;4.37;4.00;;;25.40;48.90;;;;;;10440840;28;20229;-82
2023/06/05 15:08:29;;;;;;;4.93;4.53;;;25.30;50.10;;;;;;10444075;28;20731;-81
2023/06/05 15:13:31;;;;;;;4.87;4.37;;;25.30;50.30;;;;;;10456499;28;20260;-81
2023/06/05 15:18:33;;;;;;;4.10;3.80;;;25.20;49.50;;;;;;10436278;28;20231;-82
2023/06/05 15:23:36;;;;;;;3.93;3.63;;;25.20;50.00;;;;;;10468565;28;20586;-81
2023/06/05 15:28:39;;;;;;;3.73;3.43;;;25.20;49.00;;;;;;10450331;28;20237;-82
2023/06/05 15:33:41;;;;;;;4.40;4.10;;;25.20;48.70;;;;;;10450408;28;20196;-82
2023/06/05 15:38:44;;;;;;;3.10;2.90;;;25.30;48.90;;;;;;10450502;28;20274;-82
2023/06/05 15:43:46;;;;;;;3.70;3.40;;;25.50;48.40;;;;;;10448812;28;20461;-82
2023/06/05 15:48:49;;;;;;;3.90;3.60;;;25.50;48.40;;;;;;10476599;23;20229;-87
2023/06/05 15:53:55;;;;;;;5.97;4.10;;;25.50;48.80;;;;;;10459599;28;20198;-87
2023/06/05 15:58:57;;;;;;;5.00;3.90;;;25.50;48.60;;;;;;10441341;28;20768;-89
2023/06/05 16:03:59;;;;;;;3.90;3.70;;;25.40;48.60;;;;;;10418072;28;20296;-87
2023/06/05 16:09:04;;;;;;;4.07;3.77;;;25.30;48.70;;;;;;10417649;28;20225;-87
2023/06/05 16:14:06;;;;;;;4.47;4.00;;;25.20;48.60;;;;;;10417004;28;20289;-84
2023/06/05 16:19:08;;;;;;;4.20;3.90;;;25.10;48.40;;;;;;10417052;28;20257;-85
2023/06/05 16:24:13;;;;;;;4.17;3.87;;;25.00;49.10;;;;;;10416279;28;20232;-85
2023/06/05 16:29:15;;;;;;;5.90;4.40;;;25.00;49.40;;;;;;10450152;28;20221;-85
2023/06/05 16:34:18;;;;;;;5.57;3.77;;;24.90;49.20;;;;;;10449505;28;20198;-84
2023/06/05 16:39:21;;;;;;;4.40;3.40;;;24.90;49.00;;;;;;10432518;28;20213;-85
2023/06/05 16:44:24;;;;;;;4.00;3.70;;;24.90;48.00;;;;;;10416211;28;20316;-84
2023/06/05 16:49:26;;;;;;;5.00;3.93;;;24.80;48.50;;;;;;10416268;28;20241;-85
2023/06/05 16:54:33;;;;;;;4.33;3.97;;;24.80;50.50;;;;;;10415835;28;20202;-85
2023/06/05 16:59:35;;;;;;;4.50;4.13;;;24.80;49.00;;;;;;10416547;28;20221;-86
2023/06/05 17:04:37;;;;;;;4.10;3.80;;;24.70;49.20;;;;;;10432282;28;20218;-87
2023/06/05 17:09:41;;;;;;;7.30;4.17;;;24.70;49.60;;;;;;10415269;28;20256;-87
2023/06/05 17:14:43;;;;;;;3.60;3.40;;;24.70;49.40;;;;;;10415346;28;20237;-86
2023/06/05 17:19:46;;;;;;;5.77;4.87;;;24.70;49.20;;;;;;10431396;28;20559;-86
2023/06/05 17:24:49;;;;;;;4.70;4.30;;;24.60;48.50;;;;;;10416843;28;20642;-86
2023/06/05 17:29:51;;;;;;;5.57;4.10;;;24.60;49.60;;;;;;10458114;28;20206;-87
2023/06/05 17:34:53;;;;;;;4.60;4.13;;;24.60;49.80;;;;;;10414217;28;20216;-86
2023/06/05 17:39:57;;;;;;;4.20;3.87;;;24.60;49.50;;;;;;10415349;28;20210;-86
2023/06/05 17:44:59;;;;;;;4.50;4.10;;;24.50;49.10;;;;;;10431560;28;20225;-87
2023/06/05 17:50:01;;;;;;;4.60;4.20;;;24.50;50.10;;;;;;10414753;28;20284;-87
2023/06/05 17:55:06;;;;;;;4.93;4.10;;;24.40;51.20;;;;;;10414377;28;20217;-86
2023/06/05 18:00:09;;;;;;;4.70;4.40;;;24.40;49.70;;;;;;10438698;28;20642;-85
2023/06/05 18:05:16;;;;;;;6.20;5.70;;;24.30;49.50;;;;;;10453863;28;20263;-85
2023/06/05 18:10:21;;;;;;;5.97;5.47;;;24.30;49.80;;;;;;10423885;28;20214;-84
2023/06/05 18:15:24;;;;;;;5.67;5.07;;;24.20;49.70;;;;;;10440392;28;20703;-85
2023/06/05 18:20:26;;;;;;;7.73;4.97;;;24.10;50.30;;;;;;10440136;28;20205;-84
2023/06/05 18:25:30;;;;;;;4.87;4.53;;;24.00;50.90;;;;;;10437760;28;20245;-86
2023/06/05 18:30:32;;;;;;;5.57;5.07;;;24.00;50.60;;;;;;10419418;28;20232;-84
2023/06/05 18:35:34;;;;;;;4.50;4.10;;;23.90;50.60;;;;;;10434855;28;20218;-85
2023/06/05 18:40:39;;;;;;;5.17;4.33;;;23.90;49.70;;;;;;10420408;28;20202;-84
2023/06/05 18:45:41;;;;;;;5.37;4.87;;;23.80;50.70;;;;;;10420177;28;20223;-83
2023/06/05 18:50:43;;;;;;;4.70;4.30;;;23.70;51.30;;;;;;10419844;28;20217;-83
2023/06/05 18:55:47;;;;;;;5.03;4.60;;;23.70;52.30;;;;;;10452003;28;20563;-85
2023/06/05 19:00:51;;;;;;;5.20;4.70;;;23.60;53.40;;;;;;10437119;28;20252;-83
2023/06/05 19:05:54;;;;;;;5.80;4.07;;;23.50;54.00;;;;;;10404308;28;20287;-84
2023/06/05 19:10:57;;;;;;;5.60;5.10;;;23.40;52.20;;;;;;10420002;28;20210;-84
2023/06/05 19:15:59;;;;;;;5.50;4.20;;;23.40;53.60;;;;;;10440194;28;20240;-83
2023/06/05 19:21:02;;;;;;;5.43;4.50;;;23.30;53.10;;;;;;10420743;28;20568;-84
2023/06/05 19:26:07;;;;;;;4.40;4.10;;;23.30;53.70;;;;;;10382312;28;20234;-84
2023/06/05 19:31:10;;;;;;;4.53;4.23;;;23.30;53.20;;;;;;10432343;28;20210;-85
2023/06/05 19:36:12;;;;;;;5.17;4.67;;;23.30;54.10;;;;;;10431388;28;20262;-85
2023/06/05 19:41:16;;;;;;;4.37;3.97;;;23.30;53.20;;;;;;10426818;28;20210;-84
2023/06/05 19:46:19;;;;;;;4.43;4.13;;;23.30;53.50;;;;;;10391461;28;20230;-83
2023/06/05 19:51:21;;;;;;;5.53;5.07;;;23.30;53.00;;;;;;10390205;28;20202;-84
2023/06/05 19:56:25;;;;;;;4.90;4.50;;;23.30;54.10;;;;;;10419114;28;20217;-85
2023/06/05 20:01:27;;;;;;;4.53;4.23;;;23.30;55.40;;;;;;10436632;28;20285;-84
2023/06/05 20:06:30;;;;;;;5.43;4.90;;;23.30;56.40;;;;;;10434406;28;20236;-86
2023/06/05 20:22:08;;;;;;;5.50;5.00;;;23.10;65.30;;;;;;11027667;22;20658;-82
2023/06/05 20:27:11;;;;;;;5.30;4.90;;;23.00;66.70;;;;;;10322122;28;20253;-82
2023/06/05 20:32:21;;;;;;;5.10;4.50;;;22.90;69.10;;;;;;10369057;28;20235;-85
2023/06/05 20:37:29;;;;;;;4.90;4.60;;;22.80;69.70;;;;;;10360535;28;20683;-84
2023/06/05 20:42:34;;;;;;;4.77;4.47;;;22.60;71.50;;;;;;10355915;28;20322;-84
2023/06/05 20:47:40;;;;;;;4.87;4.57;;;22.50;71.80;;;;;;10357416;28;20774;-83
2023/06/05 20:52:45;;;;;;;7.20;4.83;;;22.40;72.10;;;;;;10355617;28;20250;-84
2023/06/05 20:57:50;;;;;;;5.60;4.73;;;22.40;72.50;;;;;;10351403;28;20211;-82
2023/06/05 21:02:53;;;;;;;4.90;4.50;;;22.30;72.70;;;;;;10361996;28;20341;-83
2023/06/05 21:07:57;;;;;;;3.90;3.70;;;22.20;73.20;;;;;;10378129;28;20222;-82
2023/06/05 21:12:59;;;;;;;3.93;3.73;;;22.10;73.10;;;;;;10366716;28;20310;-82
2023/06/05 21:18:02;;;;;;;3.83;3.53;;;22.00;72.80;;;;;;10378231;28;20253;-82
2023/06/05 21:23:06;;;;;;;4.10;3.80;;;21.90;73.40;;;;;;10379150;28;20231;-82
2023/06/05 21:28:13;;;;;;;3.40;3.20;;;21.90;73.50;;;;;;10392881;28;20290;-82
2023/06/05 21:33:20;;;;;;;3.50;3.30;;;21.80;73.60;;;;;;10379597;28;20210;-82
2023/06/05 21:38:26;;;;;;;3.80;3.13;;;21.70;73.60;;;;;;10378522;28;20200;-82
2023/06/05 21:43:36;;;;;;;6.00;3.13;;;21.60;73.50;;;;;;10395929;28;20243;-82
2023/06/05 21:48:39;;;;;;;3.40;3.20;;;21.50;73.80;;;;;;10358582;28;20246;-82
2023/06/05 21:53:47;;;;;;;3.60;3.40;;;21.40;74.80;;;;;;10382021;28;20218;-82
2023/06/05 21:58:51;;;;;;;3.50;3.20;;;21.30;75.30;;;;;;10389479;28;20197;-85
2023/06/05 22:03:56;;;;;;;3.63;3.43;;;21.30;75.10;;;;;;10388948;28;20621;-84
2023/06/05 22:09:04;;;;;;;3.90;3.60;;;21.10;75.60;;;;;;10375349;28;20207;-83
2023/06/05 22:14:08;;;;;;;4.40;4.10;;;21.00;76.80;;;;;;10359967;28;20687;-85
2023/06/05 22:19:12;;;;;;;4.10;3.80;;;21.00;76.70;;;;;;10359092;28;20195;-82
2023/06/05 22:24:20;;;;;;;3.37;3.17;;;20.90;77.40;;;;;;10379573;28;20227;-84
2023/06/05 22:29:24;;;;;;;3.37;3.17;;;20.90;78.10;;;;;;10389004;28;20318;-83
2023/06/05 22:34:27;;;;;;;3.27;3.07;;;20.80;78.30;;;;;;10378586;28;20214;-84
2023/06/05 22:39:32;;;;;;;2.80;2.60;;;20.80;78.30;;;;;;10370743;28;20322;-83
2023/06/05 22:44:34;;;;;;;3.43;3.23;;;20.70;78.10;;;;;;10322893;28;20227;-82
2023/06/05 22:49:37;;;;;;;4.07;3.63;;;20.70;78.10;;;;;;10374863;28;20231;-82
2023/06/05 22:54:40;;;;;;;3.10;2.90;;;20.60;79.80;;;;;;10380978;28;20817;-83
2023/06/05 22:59:42;;;;;;;3.60;3.40;;;20.50;79.30;;;;;;10357233;28;20711;-83
2023/06/05 23:04:46;;;;;;;3.80;3.60;;;20.40;79.10;;;;;;10357869;28;20220;-82
2023/06/05 23:09:50;;;;;;;4.60;4.30;;;20.30;79.50;;;;;;10370669;28;20299;-82
2023/06/05 23:14:52;;;;;;;4.13;3.90;;;20.30;79.60;;;;;;10356418;28;20269;-83
2023/06/05 23:19:54;;;;;;;3.67;3.47;;;20.20;79.80;;;;;;10370917;28;20192;-83
2023/06/05 23:24:58;;;;;;;3.70;3.50;;;20.10;79.70;;;;;;10372253;28;20699;-83
2023/06/05 23:30:01;;;;;;;3.47;3.27;;;19.90;80.90;;;;;;10343988;28;20211;-82
2023/06/05 23:35:03;;;;;;;3.60;3.40;;;19.80;80.60;;;;;;10359442;28;20635;-82
2023/06/05 23:40:09;;;;;;;3.23;2.97;;;19.80;81.00;;;;;;10374502;28;20215;-84
2023/06/05 23:45:12;;;;;;;3.77;3.47;;;19.70;80.80;;;;;;10383917;28;20668;-84
2023/06/05 23:50:14;;;;;;;3.73;3.43;;;19.60;82.00;;;;;;10384108;28;20544;-82
2023/06/05 23:55:20;;;;;;;3.30;3.10;;;19.50;81.20;;;;;;10373536;28;20239;-83
